sensor_id;sensor_type;location;lat;lon;timestamp;P1;durP1;ratioP1;P2;durP2;ratioP2
37349;SDS011;23231;52.358;4.926;2024-03-02T00:04:55;5.78;;;2.17;;
37349;SDS011;23231;52.358;4.926;2024-03-02T00:10:00;3.55;;;1.70;;
37349;SDS011;23231;52.358;4.926;2024-03-02T00:20:45;2.90;;;1.20;;
37349;SDS011;23231;52.358;4.926;2024-03-02T00:25:53;1.75;;;0.90;;
37349;SDS011;23231;52.358;4.926;2024-03-02T00:31:11;1.83;;;0.68;;
37349;SDS011;23231;52.358;4.926;2024-03-02T00:36:28;1.45;;;0.70;;
37349;SDS011;23231;52.358;4.926;2024-03-02T00:46:42;1.98;;;0.80;;
37349;SDS011;23231;52.358;4.926;2024-03-02T00:51:54;2.65;;;0.50;;
37349;SDS011;23231;52.358;4.926;2024-03-02T00:57:01;1.92;;;0.90;;
37349;SDS011;23231;52.358;4.926;2024-03-02T01:02:09;1.30;;;0.70;;
37349;SDS011;23231;52.358;4.926;2024-03-02T01:07:11;1.60;;;0.50;;
37349;SDS011;23231;52.358;4.926;2024-03-02T01:12:17;1.58;;;0.80;;
37349;SDS011;23231;52.358;4.926;2024-03-02T01:22:27;2.25;;;0.80;;
37349;SDS011;23231;52.358;4.926;2024-03-02T01:27:36;2.15;;;0.75;;
37349;SDS011;23231;52.358;4.926;2024-03-02T01:33:02;2.60;;;1.23;;
37349;SDS011;23231;52.358;4.926;2024-03-02T01:38:11;2.50;;;1.00;;
37349;SDS011;23231;52.358;4.926;2024-03-02T01:43:12;4.32;;;1.25;;
37349;SDS011;23231;52.358;4.926;2024-03-02T01:48:23;4.30;;;2.15;;
37349;SDS011;23231;52.358;4.926;2024-03-02T01:53:31;4.25;;;2.08;;
37349;SDS011;23231;52.358;4.926;2024-03-02T01:58:41;5.10;;;2.35;;
37349;SDS011;23231;52.358;4.926;2024-03-02T02:03:45;4.22;;;2.00;;
37349;SDS011;23231;52.358;4.926;2024-03-02T02:08:51;4.80;;;2.60;;
37349;SDS011;23231;52.358;4.926;2024-03-02T02:14:04;4.85;;;2.45;;
37349;SDS011;23231;52.358;4.926;2024-03-02T02:19:11;6.95;;;2.50;;
37349;SDS011;23231;52.358;4.926;2024-03-02T02:29:19;3.90;;;1.90;;
37349;SDS011;23231;52.358;4.926;2024-03-02T02:39:30;3.72;;;2.05;;
37349;SDS011;23231;52.358;4.926;2024-03-02T02:44:37;3.58;;;1.60;;
37349;SDS011;23231;52.358;4.926;2024-03-02T02:49:43;2.92;;;1.20;;
37349;SDS011;23231;52.358;4.926;2024-03-02T02:54:57;2.75;;;1.10;;
37349;SDS011;23231;52.358;4.926;2024-03-02T03:00:10;2.53;;;0.95;;
37349;SDS011;23231;52.358;4.926;2024-03-02T03:05:18;1.65;;;1.10;;
37349;SDS011;23231;52.358;4.926;2024-03-02T03:10:19;3.63;;;1.77;;
37349;SDS011;23231;52.358;4.926;2024-03-02T03:15:37;3.42;;;1.20;;
37349;SDS011;23231;52.358;4.926;2024-03-02T03:20:45;3.88;;;1.17;;
37349;SDS011;23231;52.358;4.926;2024-03-02T03:25:45;2.33;;;1.27;;
37349;SDS011;23231;52.358;4.926;2024-03-02T03:30:53;2.50;;;1.35;;
37349;SDS011;23231;52.358;4.926;2024-03-02T03:35:55;3.35;;;1.52;;
37349;SDS011;23231;52.358;4.926;2024-03-02T03:41:00;3.35;;;1.77;;
37349;SDS011;23231;52.358;4.926;2024-03-02T03:46:05;3.15;;;1.20;;
37349;SDS011;23231;52.358;4.926;2024-03-02T03:51:08;3.80;;;1.42;;
37349;SDS011;23231;52.358;4.926;2024-03-02T03:56:13;2.78;;;1.30;;
37349;SDS011;23231;52.358;4.926;2024-03-02T04:01:16;3.80;;;1.25;;
37349;SDS011;23231;52.358;4.926;2024-03-02T04:06:28;2.35;;;1.17;;
37349;SDS011;23231;52.358;4.926;2024-03-02T04:11:39;2.45;;;1.10;;
37349;SDS011;23231;52.358;4.926;2024-03-02T04:17:04;3.33;;;1.30;;
37349;SDS011;23231;52.358;4.926;2024-03-02T04:27:19;2.28;;;1.30;;
37349;SDS011;23231;52.358;4.926;2024-03-02T04:32:23;1.50;;;0.80;;
37349;SDS011;23231;52.358;4.926;2024-03-02T04:37:33;3.65;;;1.05;;
37349;SDS011;23231;52.358;4.926;2024-03-02T04:42:40;2.47;;;1.15;;
37349;SDS011;23231;52.358;4.926;2024-03-02T04:47:57;3.58;;;2.05;;
37349;SDS011;23231;52.358;4.926;2024-03-02T04:53:01;2.22;;;0.85;;
37349;SDS011;23231;52.358;4.926;2024-03-02T04:58:12;4.47;;;1.10;;
37349;SDS011;23231;52.358;4.926;2024-03-02T05:03:19;2.45;;;1.30;;
37349;SDS011;23231;52.358;4.926;2024-03-02T05:08:44;3.42;;;1.30;;
37349;SDS011;23231;52.358;4.926;2024-03-02T05:13:52;3.22;;;1.23;;
37349;SDS011;23231;52.358;4.926;2024-03-02T05:18:59;4.05;;;1.48;;
37349;SDS011;23231;52.358;4.926;2024-03-02T05:24:03;3.67;;;1.20;;
37349;SDS011;23231;52.358;4.926;2024-03-02T05:29:12;2.90;;;1.30;;
37349;SDS011;23231;52.358;4.926;2024-03-02T05:34:45;3.08;;;1.30;;
37349;SDS011;23231;52.358;4.926;2024-03-02T05:39:51;2.50;;;1.27;;
37349;SDS011;23231;52.358;4.926;2024-03-02T05:45:06;2.67;;;1.20;;
37349;SDS011;23231;52.358;4.926;2024-03-02T05:50:31;1.55;;;0.88;;
37349;SDS011;23231;52.358;4.926;2024-03-02T05:55:44;2.22;;;1.15;;
37349;SDS011;23231;52.358;4.926;2024-03-02T06:00:57;3.13;;;1.20;;
37349;SDS011;23231;52.358;4.926;2024-03-02T06:06:07;6.20;;;1.52;;
37349;SDS011;23231;52.358;4.926;2024-03-02T06:11:16;2.40;;;1.35;;
37349;SDS011;23231;52.358;4.926;2024-03-02T06:16:26;3.50;;;1.17;;
37349;SDS011;23231;52.358;4.926;2024-03-02T06:21:33;3.75;;;1.20;;
37349;SDS011;23231;52.358;4.926;2024-03-02T06:26:46;3.38;;;1.30;;
37349;SDS011;23231;52.358;4.926;2024-03-02T06:31:55;5.40;;;1.08;;
37349;SDS011;23231;52.358;4.926;2024-03-02T06:37:07;2.50;;;1.00;;
37349;SDS011;23231;52.358;4.926;2024-03-02T06:42:16;5.68;;;1.25;;
37349;SDS011;23231;52.358;4.926;2024-03-02T06:47:20;1.08;;;0.60;;
37349;SDS011;23231;52.358;4.926;2024-03-02T06:52:24;3.45;;;0.80;;
37349;SDS011;23231;52.358;4.926;2024-03-02T06:57:33;3.92;;;1.02;;
37349;SDS011;23231;52.358;4.926;2024-03-02T07:02:41;2.00;;;0.80;;
37349;SDS011;23231;52.358;4.926;2024-03-02T07:08:01;2.17;;;0.75;;
37349;SDS011;23231;52.358;4.926;2024-03-02T07:13:11;2.30;;;0.93;;
37349;SDS011;23231;52.358;4.926;2024-03-02T07:18:23;3.17;;;1.00;;
37349;SDS011;23231;52.358;4.926;2024-03-02T07:23:30;3.15;;;1.20;;
37349;SDS011;23231;52.358;4.926;2024-03-02T07:28:54;5.75;;;1.00;;
37349;SDS011;23231;52.358;4.926;2024-03-02T07:34:03;2.30;;;0.93;;
37349;SDS011;23231;52.358;4.926;2024-03-02T07:39:11;2.90;;;1.00;;
37349;SDS011;23231;52.358;4.926;2024-03-02T07:44:21;3.65;;;0.85;;
37349;SDS011;23231;52.358;4.926;2024-03-02T07:49:30;3.78;;;1.08;;
37349;SDS011;23231;52.358;4.926;2024-03-02T07:59:34;5.03;;;1.10;;
37349;SDS011;23231;52.358;4.926;2024-03-02T08:04:40;4.97;;;1.05;;
37349;SDS011;23231;52.358;4.926;2024-03-02T08:09:50;3.97;;;1.20;;
37349;SDS011;23231;52.358;4.926;2024-03-02T08:14:57;3.22;;;1.00;;
37349;SDS011;23231;52.358;4.926;2024-03-02T08:20:13;3.10;;;1.20;;
37349;SDS011;23231;52.358;4.926;2024-03-02T08:25:23;3.35;;;1.13;;
37349;SDS011;23231;52.358;4.926;2024-03-02T08:30:29;3.25;;;1.40;;
37349;SDS011;23231;52.358;4.926;2024-03-02T08:35:37;4.40;;;1.65;;
37349;SDS011;23231;52.358;4.926;2024-03-02T08:40:47;2.78;;;1.10;;
37349;SDS011;23231;52.358;4.926;2024-03-02T08:45:50;4.28;;;1.10;;
37349;SDS011;23231;52.358;4.926;2024-03-02T08:50:55;3.35;;;1.02;;
37349;SDS011;23231;52.358;4.926;2024-03-02T08:56:00;3.15;;;0.90;;
37349;SDS011;23231;52.358;4.926;2024-03-02T09:01:06;3.45;;;0.90;;
37349;SDS011;23231;52.358;4.926;2024-03-02T09:06:18;3.85;;;1.45;;
37349;SDS011;23231;52.358;4.926;2024-03-02T09:11:23;3.60;;;1.20;;
37349;SDS011;23231;52.358;4.926;2024-03-02T09:16:52;3.33;;;1.20;;
37349;SDS011;23231;52.358;4.926;2024-03-02T09:22:00;3.97;;;1.10;;
37349;SDS011;23231;52.358;4.926;2024-03-02T09:27:10;3.63;;;1.00;;
37349;SDS011;23231;52.358;4.926;2024-03-02T09:32:17;5.10;;;1.27;;
37349;SDS011;23231;52.358;4.926;2024-03-02T09:37:27;4.05;;;1.10;;
37349;SDS011;23231;52.358;4.926;2024-03-02T09:42:35;5.20;;;1.20;;
37349;SDS011;23231;52.358;4.926;2024-03-02T09:48:03;6.82;;;1.17;;
37349;SDS011;23231;52.358;4.926;2024-03-02T09:53:20;3.38;;;1.00;;
37349;SDS011;23231;52.358;4.926;2024-03-02T09:58:27;5.45;;;1.20;;
37349;SDS011;23231;52.358;4.926;2024-03-02T10:03:27;8.60;;;1.10;;
37349;SDS011;23231;52.358;4.926;2024-03-02T10:08:37;6.63;;;1.20;;
37349;SDS011;23231;52.358;4.926;2024-03-02T10:13:43;5.20;;;1.02;;
37349;SDS011;23231;52.358;4.926;2024-03-02T10:18:43;6.82;;;1.30;;
37349;SDS011;23231;52.358;4.926;2024-03-02T10:23:43;3.10;;;0.80;;
37349;SDS011;23231;52.358;4.926;2024-03-02T10:28:47;6.40;;;1.25;;
37349;SDS011;23231;52.358;4.926;2024-03-02T10:33:47;6.13;;;1.52;;
37349;SDS011;23231;52.358;4.926;2024-03-02T10:38:48;5.35;;;1.10;;
37349;SDS011;23231;52.358;4.926;2024-03-02T10:43:52;4.93;;;1.05;;
37349;SDS011;23231;52.358;4.926;2024-03-02T10:48:59;5.20;;;1.50;;
37349;SDS011;23231;52.358;4.926;2024-03-02T10:54:01;3.00;;;1.10;;
37349;SDS011;23231;52.358;4.926;2024-03-02T10:59:03;7.38;;;1.23;;
37349;SDS011;23231;52.358;4.926;2024-03-02T11:04:11;5.05;;;1.40;;
37349;SDS011;23231;52.358;4.926;2024-03-02T11:09:13;4.97;;;1.05;;
37349;SDS011;23231;52.358;4.926;2024-03-02T11:14:16;7.50;;;1.40;;
37349;SDS011;23231;52.358;4.926;2024-03-02T11:19:17;6.97;;;1.40;;
37349;SDS011;23231;52.358;4.926;2024-03-02T11:34:38;4.97;;;0.98;;
37349;SDS011;23231;52.358;4.926;2024-03-02T11:39:45;3.55;;;0.90;;
37349;SDS011;23231;52.358;4.926;2024-03-02T11:44:46;5.15;;;1.05;;
37349;SDS011;23231;52.358;4.926;2024-03-02T11:49:51;3.30;;;1.13;;
37349;SDS011;23231;52.358;4.926;2024-03-02T11:54:52;5.10;;;1.15;;
37349;SDS011;23231;52.358;4.926;2024-03-02T11:59:53;5.85;;;1.23;;
37349;SDS011;23231;52.358;4.926;2024-03-02T12:04:54;3.53;;;1.10;;
37349;SDS011;23231;52.358;4.926;2024-03-02T12:10:01;3.70;;;1.00;;
37349;SDS011;23231;52.358;4.926;2024-03-02T12:15:03;4.22;;;1.30;;
37349;SDS011;23231;52.358;4.926;2024-03-02T12:20:06;6.53;;;1.33;;
37349;SDS011;23231;52.358;4.926;2024-03-02T12:25:07;3.55;;;0.98;;
37349;SDS011;23231;52.358;4.926;2024-03-02T12:30:07;5.38;;;1.00;;
37349;SDS011;23231;52.358;4.926;2024-03-02T12:35:11;4.30;;;1.10;;
37349;SDS011;23231;52.358;4.926;2024-03-02T12:40:17;3.97;;;0.82;;
37349;SDS011;23231;52.358;4.926;2024-03-02T12:45:18;4.25;;;0.90;;
37349;SDS011;23231;52.358;4.926;2024-03-02T12:50:23;2.90;;;0.98;;
37349;SDS011;23231;52.358;4.926;2024-03-02T12:55:24;8.73;;;1.35;;
37349;SDS011;23231;52.358;4.926;2024-03-02T13:00:24;4.28;;;1.00;;
37349;SDS011;23231;52.358;4.926;2024-03-02T13:05:25;4.00;;;0.85;;
37349;SDS011;23231;52.358;4.926;2024-03-02T13:10:30;3.83;;;1.00;;
37349;SDS011;23231;52.358;4.926;2024-03-02T13:15:32;3.88;;;1.17;;
37349;SDS011;23231;52.358;4.926;2024-03-02T13:20:33;3.58;;;1.10;;
37349;SDS011;23231;52.358;4.926;2024-03-02T13:25:34;4.05;;;0.90;;
37349;SDS011;23231;52.358;4.926;2024-03-02T13:30:35;3.30;;;0.88;;
37349;SDS011;23231;52.358;4.926;2024-03-02T13:35:35;3.63;;;1.08;;
37349;SDS011;23231;52.358;4.926;2024-03-02T13:40:36;4.22;;;1.27;;
37349;SDS011;23231;52.358;4.926;2024-03-02T13:45:38;4.65;;;1.08;;
37349;SDS011;23231;52.358;4.926;2024-03-02T13:50:39;5.15;;;1.20;;
37349;SDS011;23231;52.358;4.926;2024-03-02T13:55:39;3.78;;;1.13;;
37349;SDS011;23231;52.358;4.926;2024-03-02T14:00:41;6.15;;;0.95;;
37349;SDS011;23231;52.358;4.926;2024-03-02T14:05:42;4.88;;;1.40;;
37349;SDS011;23231;52.358;4.926;2024-03-02T14:10:43;6.22;;;1.23;;
37349;SDS011;23231;52.358;4.926;2024-03-02T14:15:43;3.42;;;1.05;;
37349;SDS011;23231;52.358;4.926;2024-03-02T14:20:45;3.10;;;1.00;;
37349;SDS011;23231;52.358;4.926;2024-03-02T14:25:52;3.65;;;1.05;;
37349;SDS011;23231;52.358;4.926;2024-03-02T14:30:52;3.95;;;1.38;;
37349;SDS011;23231;52.358;4.926;2024-03-02T14:35:53;3.00;;;0.77;;
37349;SDS011;23231;52.358;4.926;2024-03-02T14:40:54;3.83;;;0.80;;
37349;SDS011;23231;52.358;4.926;2024-03-02T14:45:54;2.88;;;1.00;;
37349;SDS011;23231;52.358;4.926;2024-03-02T14:50:55;4.00;;;1.20;;
37349;SDS011;23231;52.358;4.926;2024-03-02T14:55:56;3.65;;;1.00;;
37349;SDS011;23231;52.358;4.926;2024-03-02T15:00:58;5.93;;;1.35;;
37349;SDS011;23231;52.358;4.926;2024-03-02T15:05:58;4.13;;;1.00;;
37349;SDS011;23231;52.358;4.926;2024-03-02T15:10:59;4.05;;;1.35;;
37349;SDS011;23231;52.358;4.926;2024-03-02T15:16:01;6.07;;;1.50;;
37349;SDS011;23231;52.358;4.926;2024-03-02T15:21:01;6.13;;;1.50;;
37349;SDS011;23231;52.358;4.926;2024-03-02T15:26:02;3.15;;;1.30;;
37349;SDS011;23231;52.358;4.926;2024-03-02T15:31:03;5.43;;;1.65;;
37349;SDS011;23231;52.358;4.926;2024-03-02T15:36:04;5.43;;;1.38;;
37349;SDS011;23231;52.358;4.926;2024-03-02T15:41:05;4.47;;;1.13;;
37349;SDS011;23231;52.358;4.926;2024-03-02T15:46:05;5.95;;;1.58;;
37349;SDS011;23231;52.358;4.926;2024-03-02T15:51:06;2.70;;;1.13;;
37349;SDS011;23231;52.358;4.926;2024-03-02T15:56:06;4.95;;;1.33;;
37349;SDS011;23231;52.358;4.926;2024-03-02T16:01:08;4.15;;;1.40;;
37349;SDS011;23231;52.358;4.926;2024-03-02T16:06:15;7.15;;;1.38;;
37349;SDS011;23231;52.358;4.926;2024-03-02T16:11:15;6.63;;;1.20;;
37349;SDS011;23231;52.358;4.926;2024-03-02T16:16:24;5.28;;;1.33;;
37349;SDS011;23231;52.358;4.926;2024-03-02T16:21:29;4.72;;;1.67;;
37349;SDS011;23231;52.358;4.926;2024-03-02T16:26:36;5.60;;;1.48;;
37349;SDS011;23231;52.358;4.926;2024-03-02T16:31:41;4.97;;;1.80;;
37349;SDS011;23231;52.358;4.926;2024-03-02T16:36:46;6.65;;;1.33;;
37349;SDS011;23231;52.358;4.926;2024-03-02T16:41:57;2.97;;;0.98;;
37349;SDS011;23231;52.358;4.926;2024-03-02T16:47:04;3.47;;;1.00;;
37349;SDS011;23231;52.358;4.926;2024-03-02T16:52:06;5.28;;;1.48;;
37349;SDS011;23231;52.358;4.926;2024-03-02T16:57:18;4.20;;;1.40;;
37349;SDS011;23231;52.358;4.926;2024-03-02T17:02:35;3.05;;;1.10;;
37349;SDS011;23231;52.358;4.926;2024-03-02T17:07:53;3.58;;;1.10;;
37349;SDS011;23231;52.358;4.926;2024-03-02T17:12:58;5.38;;;1.33;;
37349;SDS011;23231;52.358;4.926;2024-03-02T17:18:11;3.45;;;1.33;;
37349;SDS011;23231;52.358;4.926;2024-03-02T17:23:15;6.18;;;1.45;;
37349;SDS011;23231;52.358;4.926;2024-03-02T17:28:23;4.63;;;1.73;;
37349;SDS011;23231;52.358;4.926;2024-03-02T17:33:30;3.97;;;1.35;;
37349;SDS011;23231;52.358;4.926;2024-03-02T17:38:44;3.35;;;1.33;;
37349;SDS011;23231;52.358;4.926;2024-03-02T17:43:53;4.70;;;1.83;;
37349;SDS011;23231;52.358;4.926;2024-03-02T17:48:57;6.20;;;1.90;;
37349;SDS011;23231;52.358;4.926;2024-03-02T17:54:07;5.03;;;2.35;;
37349;SDS011;23231;52.358;4.926;2024-03-02T17:59:11;6.65;;;2.40;;
37349;SDS011;23231;52.358;4.926;2024-03-02T18:04:25;6.15;;;2.35;;
37349;SDS011;23231;52.358;4.926;2024-03-02T18:09:35;5.20;;;1.90;;
37349;SDS011;23231;52.358;4.926;2024-03-02T18:14:39;7.00;;;2.10;;
37349;SDS011;23231;52.358;4.926;2024-03-02T18:19:44;6.85;;;2.40;;
37349;SDS011;23231;52.358;4.926;2024-03-02T18:24:45;3.63;;;2.03;;
37349;SDS011;23231;52.358;4.926;2024-03-02T18:29:48;5.00;;;2.40;;
37349;SDS011;23231;52.358;4.926;2024-03-02T18:34:49;6.18;;;2.70;;
37349;SDS011;23231;52.358;4.926;2024-03-02T18:39:51;4.65;;;2.40;;
37349;SDS011;23231;52.358;4.926;2024-03-02T18:44:53;6.32;;;2.90;;
37349;SDS011;23231;52.358;4.926;2024-03-02T18:49:56;6.25;;;2.85;;
37349;SDS011;23231;52.358;4.926;2024-03-02T18:55:05;7.10;;;2.78;;
37349;SDS011;23231;52.358;4.926;2024-03-02T19:00:07;5.07;;;2.70;;
37349;SDS011;23231;52.358;4.926;2024-03-02T19:05:10;5.40;;;2.67;;
37349;SDS011;23231;52.358;4.926;2024-03-02T19:10:15;5.63;;;2.40;;
37349;SDS011;23231;52.358;4.926;2024-03-02T19:15:20;4.35;;;2.53;;
37349;SDS011;23231;52.358;4.926;2024-03-02T19:20:31;5.68;;;2.70;;
37349;SDS011;23231;52.358;4.926;2024-03-02T19:25:31;6.18;;;2.83;;
37349;SDS011;23231;52.358;4.926;2024-03-02T19:30:33;6.75;;;3.20;;
37349;SDS011;23231;52.358;4.926;2024-03-02T19:35:41;7.05;;;3.28;;
37349;SDS011;23231;52.358;4.926;2024-03-02T19:40:42;6.18;;;2.97;;
37349;SDS011;23231;52.358;4.926;2024-03-02T19:45:45;5.60;;;2.97;;
37349;SDS011;23231;52.358;4.926;2024-03-02T19:50:52;6.68;;;3.03;;
37349;SDS011;23231;52.358;4.926;2024-03-02T19:56:01;5.30;;;2.30;;
37349;SDS011;23231;52.358;4.926;2024-03-02T20:01:08;5.63;;;2.67;;
37349;SDS011;23231;52.358;4.926;2024-03-02T20:06:11;5.45;;;2.97;;
37349;SDS011;23231;52.358;4.926;2024-03-02T20:11:16;6.65;;;3.00;;
37349;SDS011;23231;52.358;4.926;2024-03-02T20:16:22;7.35;;;2.63;;
37349;SDS011;23231;52.358;4.926;2024-03-02T20:21:29;6.10;;;2.72;;
37349;SDS011;23231;52.358;4.926;2024-03-02T20:26:38;6.00;;;2.80;;
37349;SDS011;23231;52.358;4.926;2024-03-02T20:31:46;6.93;;;3.28;;
37349;SDS011;23231;52.358;4.926;2024-03-02T20:36:59;5.85;;;3.30;;
37349;SDS011;23231;52.358;4.926;2024-03-02T20:42:01;6.65;;;3.15;;
37349;SDS011;23231;52.358;4.926;2024-03-02T20:47:15;6.35;;;2.97;;
37349;SDS011;23231;52.358;4.926;2024-03-02T20:52:20;6.25;;;3.22;;
37349;SDS011;23231;52.358;4.926;2024-03-02T20:57:33;6.30;;;3.10;;
37349;SDS011;23231;52.358;4.926;2024-03-02T21:02:35;4.95;;;2.90;;
37349;SDS011;23231;52.358;4.926;2024-03-02T21:07:40;6.60;;;3.10;;
37349;SDS011;23231;52.358;4.926;2024-03-02T21:12:41;7.10;;;3.15;;
37349;SDS011;23231;52.358;4.926;2024-03-02T21:17:44;6.45;;;2.88;;
37349;SDS011;23231;52.358;4.926;2024-03-02T21:22:49;6.60;;;3.33;;
37349;SDS011;23231;52.358;4.926;2024-03-02T21:27:55;6.57;;;3.00;;
37349;SDS011;23231;52.358;4.926;2024-03-02T21:33:07;6.05;;;3.05;;
37349;SDS011;23231;52.358;4.926;2024-03-02T21:38:15;6.63;;;3.47;;
37349;SDS011;23231;52.358;4.926;2024-03-02T21:43:16;6.22;;;3.33;;
37349;SDS011;23231;52.358;4.926;2024-03-02T21:48:25;8.25;;;3.70;;
37349;SDS011;23231;52.358;4.926;2024-03-02T21:53:28;6.03;;;3.35;;
37349;SDS011;23231;52.358;4.926;2024-03-02T22:03:56;7.55;;;3.80;;
37349;SDS011;23231;52.358;4.926;2024-03-02T22:09:01;7.37;;;3.37;;
37349;SDS011;23231;52.358;4.926;2024-03-02T22:14:28;6.45;;;3.67;;
37349;SDS011;23231;52.358;4.926;2024-03-02T22:19:39;6.78;;;3.70;;
37349;SDS011;23231;52.358;4.926;2024-03-02T22:24:43;5.80;;;3.42;;
37349;SDS011;23231;52.358;4.926;2024-03-02T22:29:55;6.85;;;3.72;;
37349;SDS011;23231;52.358;4.926;2024-03-02T22:34:58;5.65;;;3.55;;
37349;SDS011;23231;52.358;4.926;2024-03-02T22:40:15;5.53;;;3.50;;
37349;SDS011;23231;52.358;4.926;2024-03-02T22:45:23;9.38;;;3.70;;
37349;SDS011;23231;52.358;4.926;2024-03-02T22:50:32;6.90;;;3.20;;
37349;SDS011;23231;52.358;4.926;2024-03-02T22:55:43;6.72;;;3.50;;
37349;SDS011;23231;52.358;4.926;2024-03-02T23:00:47;6.25;;;3.28;;
37349;SDS011;23231;52.358;4.926;2024-03-02T23:06:01;5.45;;;3.00;;
37349;SDS011;23231;52.358;4.926;2024-03-02T23:11:07;4.85;;;2.70;;
37349;SDS011;23231;52.358;4.926;2024-03-02T23:16:14;8.18;;;3.17;;
37349;SDS011;23231;52.358;4.926;2024-03-02T23:21:17;5.95;;;2.60;;
37349;SDS011;23231;52.358;4.926;2024-03-02T23:26:21;5.13;;;2.40;;
37349;SDS011;23231;52.358;4.926;2024-03-02T23:31:32;4.28;;;2.45;;
37349;SDS011;23231;52.358;4.926;2024-03-02T23:36:41;5.43;;;2.70;;
37349;SDS011;23231;52.358;4.926;2024-03-02T23:41:58;4.55;;;2.25;;
37349;SDS011;23231;52.358;4.926;2024-03-02T23:47:13;4.68;;;2.03;;
37349;SDS011;23231;52.358;4.926;2024-03-02T23:52:22;6.50;;;2.03;;
37349;SDS011;23231;52.358;4.926;2024-03-02T23:57:33;6.35;;;2.50;;
